DW8675 Weather Reports


Display with metric or nautical units.
time (UTC)temp
F
wind
direction
speed
MPH
gust
MPH
rain 1hr
in
rain 24hr
in
rain mn
in
humidity
%
barometer
mb
20240624054542 69 157 1.0 5.0 0.00 0.90 0.00 97 993.3
20240624053013 69 191 0.0 7.0 0.00 0.90 0.00 98 993.4
20240624051542 68 154 0.0 4.0 0.00 0.90 0.00 98 993.3
20240624050014 68 189 0.0 0.0 0.00 0.90 0.00 98 993.2
20240624044554 68 190 0.0 5.0 0.00 0.90 0.00 98 993.4
20240624043019 68 183 0.0 0.0 0.00 0.90 0.00 98 993.5
20240624041557 68 193 0.0 5.0 0.00 0.90 0.00 98 993.4
20240624040033 68 108 0.0 0.0 0.00 0.90 0.00 98 993.6
20240624034524 68 142 0.0 0.0 0.00 0.90 0.90 98 993.9
20240624033022 69 170 0.0 0.0 0.00 0.90 0.90 98 994.0
20240624031601 69 193 0.0 5.0 0.00 0.90 0.90 98 994.0
20240624030054 69 145 0.0 4.0 0.00 0.90 0.90 98 994.0
20240624024533 69 83 0.0 0.0 0.00 0.91 0.90 98 994.0
20240624023004 69 128 0.0 0.0 0.00 0.91 0.90 98 994.1
20240624021556 69 132 0.0 4.0 0.00 0.91 0.90 98 994.3
20240624020102 69 182 0.0 4.0 0.00 0.91 0.90 98 994.4
20240624014530 70 177 0.0 10.0 0.00 0.91 0.90 98 994.6
20240624013017 70 179 0.0 7.0 0.00 0.91 0.90 98 994.5
20240624011509 70 145 0.0 5.0 0.00 0.91 0.90 98 994.4
20240624010047 71 200 0.0 3.0 0.00 0.91 0.90 98 994.6
20240624004537 71 161 3.0 13.0 0.03 0.91 0.90 97 994.5
20240624003043 72 201 0.0 9.0 0.08 0.91 0.90 98 994.8
20240624001521 72 184 0.0 3.0 0.12 0.91 0.90 98 994.5
20240624000012 71 184 0.0 7.0 0.18 0.91 0.90 99 994.4
20240623234504 71 69 0.0 0.0 0.21 0.88 0.86 98 995.3
20240623233050 72 191 0.0 0.0 0.23 0.84 0.82 98 994.7
20240623231530 72 189 0.0 0.0 0.18 0.79 0.77 98 994.7
20240623230034 72 190 0.0 3.0 0.14 0.74 0.72 98 994.3
20240623224513 71 217 1.0 9.0 0.09 0.76 0.65 95 994.4
20240623223059 72 231 0.0 1.0 0.07 0.70 0.59 98 995.1
20240623221553 73 149 0.0 0.0 0.11 0.70 0.59 97 994.7
20240623220030 73 234 0.0 7.0 0.14 0.69 0.57 97 994.9
20240623214513 73 201 0.0 3.0 0.18 0.67 0.56 98 994.9
20240623213058 72 172 0.0 1.0 0.19 0.63 0.52 98 994.7
20240623211544 72 109 0.0 4.0 0.22 0.59 0.48 98 994.8
20240623210030 71 125 0.0 0.0 0.28 0.55 0.44 98 995.1
20240623204518 71 112 0.0 0.0 0.26 0.49 0.38 98 995.5
20240623203055 71 116 0.0 0.0 0.21 0.44 0.33 97 995.9
20240623201533 70 160 0.0 11.0 0.13 0.36 0.25 98 996.3
20240623200021 70 359 5.0 21.0 0.03 0.26 0.15 95 997.5
20240623194501 71 124 0.0 4.0 0.00 0.23 0.12 98 996.6
20240623193052 71 141 0.0 9.0 0.00 0.23 0.12 98 996.8
20240623191550 71 178 1.0 12.0 0.00 0.23 0.12 97 997.2
20240623190034 71 156 0.0 6.0 0.00 0.23 0.12 97 997.1
20240623184525 71 166 0.0 7.0 0.00 0.23 0.12 97 997.4
20240623183001 70 164 0.0 7.0 0.00 0.23 0.12 97 997.7
20240623181539 70 149 1.0 8.0 0.00 0.23 0.12 97 998.3
20240623180020 70 116 0.0 6.0 0.00 0.23 0.12 98 998.8
20240623174600 69 158 1.0 10.0 0.00 0.27 0.12 97 999.0
20240623174502 69 156 0.0 10.0 0.00 0.27 0.12 98 999.0
20240623173050 69 141 0.0 9.0 0.00 0.27 0.12 99 999.4
20240623171532 68 151 1.0 8.0 0.00 0.27 0.12 99 999.6
20240623170101 67 143 1.0 8.0 0.00 0.27 0.12 99 999.8
20240623164534 67 186 2.0 10.0 0.00 0.30 0.12 100 1000.2
20240623163007 66 156 0.0 10.0 0.00 0.30 0.12 100 1000.5
20240623161544 65 105 1.0 9.0 0.00 0.30 0.12 100 1000.8
20240623160018 65 128 1.0 7.0 0.00 0.30 0.12 100 1001.0
20240623154504 64 116 0.0 5.0 0.00 0.30 0.12 99 1001.5
20240623153042 63 141 0.0 4.0 0.00 0.30 0.12 99 1001.7
20240623151606 63 142 0.0 5.0 0.00 0.30 0.12 99 1001.9
20240623150040 62 38 0.0 6.0 0.00 0.30 0.12 99 1002.2
20240623144518 62 158 0.0 7.0 0.00 0.30 0.12 99 1002.5
20240623143037 62 120 0.0 5.0 0.00 0.30 0.12 99 1002.7
20240623141522 61 116 0.0 5.0 0.00 0.30 0.12 99 1002.9
20240623140020 61 64 0.0 8.0 0.00 0.30 0.12 99 1003.2
20240623134559 61 80 0.0 7.0 0.00 0.31 0.12 99 1003.6
20240623133035 60 145 0.0 9.0 0.00 0.31 0.12 99 1003.6
20240623131527 60 67 0.0 0.0 0.00 0.31 0.12 99 1004.1
20240623130059 60 106 0.0 5.0 0.00 0.31 0.12 99 1004.3
20240623124545 60 233 0.0 8.0 0.00 0.32 0.12 99 1004.5
20240623123030 60 155 0.0 9.0 0.00 0.32 0.12 99 1004.5
20240623121558 60 237 0.0 6.0 0.01 0.32 0.12 99 1004.8
20240623120036 60 147 0.0 7.0 0.04 0.32 0.12 99 1005.0
20240623114521 60 130 0.0 7.0 0.09 0.32 0.12 99 1005.1
20240623113110 59 147 0.0 8.0 0.09 0.32 0.12 99 1005.6
20240623111533 59 159 0.0 3.0 0.08 0.31 0.11 99 1005.7
20240623110011 59 167 0.0 6.0 0.04 0.27 0.07 99 1005.8
20240623104548 59 129 0.0 0.0 0.00 0.23 0.03 99 1006.0
20240623103037 59 121 0.0 0.0 0.01 0.23 0.03 99 1006.2
20240623101521 59 115 0.0 0.0 0.01 0.23 0.03 99 1006.2
20240623100043 59 157 0.0 0.0 0.01 0.23 0.03 99 1006.5
20240623094508 59 142 0.0 3.0 0.01 0.23 0.03 99 1006.3
20240623093041 59 112 0.0 0.0 0.00 0.22 0.02 98 1006.6
20240623091523 59 116 1.0 5.0 0.00 0.22 0.02 98 1006.9
20240623090029 58 79 0.0 0.0 0.00 0.22 0.02 98 1007.0
20240623083038 58 131 0.0 1.0 0.00 0.22 0.02 98 1007.5
20240623081506 58 132 0.0 0.0 0.00 0.22 0.02 98 1007.6
20240623080031 59 119 0.0 0.0 0.00 0.22 0.02 98 1008.1
20240623074502 59 122 0.0 0.0 0.00 0.22 0.02 98 1008.4
20240623073035 59 91 0.0 0.0 0.00 0.22 0.02 98 1008.5
20240623071512 59 89 0.0 0.0 0.00 0.22 0.02 98 1008.8
20240623070059 59 90 0.0 0.0 0.00 0.22 0.02 98 1009.1
20240623064522 59 108 0.0 0.0 0.00 0.22 0.02 98 1009.3
20240623063046 59 102 0.0 0.0 0.00 0.22 0.02 98 1009.7
20240623061521 59 91 0.0 2.0 0.01 0.22 0.02 98 1009.5
20240623060011 59 106 0.0 1.0 0.02 0.22 0.02 98 1009.7